sensor_id;sensor_type;location;lat;lon;timestamp;P1;durP1;ratioP1;P2;durP2;ratioP2
17636;SDS011;8937;51.236;6.794;2023-08-06T00:00:09;2.90;;;2.00;;
17636;SDS011;8937;51.236;6.794;2023-08-06T00:08:31;2.07;;;1.90;;
17636;SDS011;8937;51.236;6.794;2023-08-06T00:16:53;1.87;;;1.77;;
17636;SDS011;8937;51.236;6.794;2023-08-06T00:25:15;1.57;;;1.57;;
17636;SDS011;8937;51.236;6.794;2023-08-06T00:33:37;1.63;;;1.53;;
17636;SDS011;8937;51.236;6.794;2023-08-06T00:41:59;1.80;;;1.70;;
17636;SDS011;8937;51.236;6.794;2023-08-06T00:50:21;2.53;;;1.57;;
17636;SDS011;8937;51.236;6.794;2023-08-06T00:58:44;1.60;;;1.50;;
17636;SDS011;8937;51.236;6.794;2023-08-06T01:07:08;4.67;;;1.40;;
17636;SDS011;8937;51.236;6.794;2023-08-06T01:15:38;1.83;;;1.60;;
17636;SDS011;8937;51.236;6.794;2023-08-06T01:24:04;4.63;;;1.70;;
17636;SDS011;8937;51.236;6.794;2023-08-06T01:32:25;1.70;;;1.60;;
17636;SDS011;8937;51.236;6.794;2023-08-06T01:40:48;3.60;;;3.30;;
17636;SDS011;8937;51.236;6.794;2023-08-06T01:49:10;2.43;;;2.23;;
17636;SDS011;8937;51.236;6.794;2023-08-06T01:57:32;2.00;;;1.90;;
17636;SDS011;8937;51.236;6.794;2023-08-06T02:05:54;1.67;;;1.57;;
17636;SDS011;8937;51.236;6.794;2023-08-06T02:14:16;1.77;;;1.67;;
17636;SDS011;8937;51.236;6.794;2023-08-06T02:22:38;3.13;;;1.70;;
17636;SDS011;8937;51.236;6.794;2023-08-06T02:31:00;1.67;;;1.67;;
17636;SDS011;8937;51.236;6.794;2023-08-06T02:39:22;1.80;;;1.70;;
17636;SDS011;8937;51.236;6.794;2023-08-06T02:47:44;2.00;;;1.80;;
17636;SDS011;8937;51.236;6.794;2023-08-06T02:56:06;1.77;;;1.67;;
17636;SDS011;8937;51.236;6.794;2023-08-06T03:04:28;1.83;;;1.73;;
17636;SDS011;8937;51.236;6.794;2023-08-06T03:12:50;2.27;;;2.17;;
17636;SDS011;8937;51.236;6.794;2023-08-06T03:21:12;2.23;;;1.73;;
17636;SDS011;8937;51.236;6.794;2023-08-06T03:29:34;1.70;;;1.60;;
17636;SDS011;8937;51.236;6.794;2023-08-06T03:37:56;2.00;;;1.50;;
17636;SDS011;8937;51.236;6.794;2023-08-06T03:46:18;1.70;;;1.60;;
17636;SDS011;8937;51.236;6.794;2023-08-06T03:54:40;1.50;;;1.40;;
17636;SDS011;8937;51.236;6.794;2023-08-06T04:03:03;1.70;;;1.60;;
17636;SDS011;8937;51.236;6.794;2023-08-06T04:11:25;4.07;;;1.60;;
17636;SDS011;8937;51.236;6.794;2023-08-06T04:19:47;1.70;;;1.60;;
17636;SDS011;8937;51.236;6.794;2023-08-06T04:28:10;1.40;;;1.30;;
17636;SDS011;8937;51.236;6.794;2023-08-06T04:36:31;1.30;;;1.30;;
17636;SDS011;8937;51.236;6.794;2023-08-06T04:44:54;1.20;;;1.20;;
17636;SDS011;8937;51.236;6.794;2023-08-06T04:53:15;1.60;;;1.50;;
17636;SDS011;8937;51.236;6.794;2023-08-06T05:01:38;1.37;;;1.33;;
17636;SDS011;8937;51.236;6.794;2023-08-06T05:09:59;2.23;;;1.33;;
17636;SDS011;8937;51.236;6.794;2023-08-06T05:18:22;1.60;;;1.50;;
17636;SDS011;8937;51.236;6.794;2023-08-06T05:26:43;1.70;;;1.60;;
17636;SDS011;8937;51.236;6.794;2023-08-06T05:35:08;1.90;;;1.80;;
17636;SDS011;8937;51.236;6.794;2023-08-06T05:43:29;1.73;;;1.50;;
17636;SDS011;8937;51.236;6.794;2023-08-06T05:51:52;2.33;;;1.52;;
17636;SDS011;8937;51.236;6.794;2023-08-06T06:00:14;2.10;;;1.63;;
17636;SDS011;8937;51.236;6.794;2023-08-06T06:08:37;1.27;;;1.17;;
17636;SDS011;8937;51.236;6.794;2023-08-06T06:16:58;1.83;;;1.50;;
17636;SDS011;8937;51.236;6.794;2023-08-06T06:25:21;1.25;;;1.10;;
17636;SDS011;8937;51.236;6.794;2023-08-06T06:33:42;1.75;;;1.00;;
17636;SDS011;8937;51.236;6.794;2023-08-06T06:42:05;0.90;;;0.90;;
17636;SDS011;8937;51.236;6.794;2023-08-06T06:50:27;1.00;;;1.00;;
17636;SDS011;8937;51.236;6.794;2023-08-06T06:58:49;0.88;;;0.88;;
17636;SDS011;8937;51.236;6.794;2023-08-06T07:07:11;1.65;;;0.93;;
17636;SDS011;8937;51.236;6.794;2023-08-06T07:15:33;1.08;;;0.80;;
17636;SDS011;8937;51.236;6.794;2023-08-06T07:23:55;1.00;;;1.00;;
17636;SDS011;8937;51.236;6.794;2023-08-06T07:32:17;0.77;;;0.77;;
17636;SDS011;8937;51.236;6.794;2023-08-06T07:40:39;1.15;;;1.08;;
17636;SDS011;8937;51.236;6.794;2023-08-06T07:49:02;1.30;;;1.10;;
17636;SDS011;8937;51.236;6.794;2023-08-06T07:57:23;1.38;;;1.38;;
17636;SDS011;8937;51.236;6.794;2023-08-06T08:05:46;1.80;;;1.70;;
17636;SDS011;8937;51.236;6.794;2023-08-06T08:14:07;2.40;;;2.20;;
17636;SDS011;8937;51.236;6.794;2023-08-06T08:22:30;2.60;;;2.40;;
17636;SDS011;8937;51.236;6.794;2023-08-06T08:30:51;1.58;;;1.58;;
17636;SDS011;8937;51.236;6.794;2023-08-06T08:39:14;1.67;;;1.67;;
17636;SDS011;8937;51.236;6.794;2023-08-06T08:47:35;1.40;;;1.30;;
17636;SDS011;8937;51.236;6.794;2023-08-06T08:55:58;1.50;;;1.40;;
17636;SDS011;8937;51.236;6.794;2023-08-06T09:04:20;1.20;;;1.20;;
17636;SDS011;8937;51.236;6.794;2023-08-06T09:12:43;2.50;;;1.02;;
17636;SDS011;8937;51.236;6.794;2023-08-06T09:21:05;1.17;;;1.17;;
17636;SDS011;8937;51.236;6.794;2023-08-06T09:29:28;1.90;;;1.80;;
17636;SDS011;8937;51.236;6.794;2023-08-06T09:37:52;1.83;;;1.73;;
17636;SDS011;8937;51.236;6.794;2023-08-06T09:46:14;2.40;;;2.13;;
17636;SDS011;8937;51.236;6.794;2023-08-06T09:54:36;1.90;;;1.80;;
17636;SDS011;8937;51.236;6.794;2023-08-06T10:03:00;2.10;;;1.67;;
17636;SDS011;8937;51.236;6.794;2023-08-06T10:11:22;2.15;;;1.50;;
17636;SDS011;8937;51.236;6.794;2023-08-06T10:19:46;1.02;;;1.02;;
17636;SDS011;8937;51.236;6.794;2023-08-06T10:28:09;1.17;;;1.17;;
17636;SDS011;8937;51.236;6.794;2023-08-06T10:36:32;0.93;;;0.93;;
17636;SDS011;8937;51.236;6.794;2023-08-06T10:45:16;0.63;;;0.63;;
17636;SDS011;8937;51.236;6.794;2023-08-06T10:53:41;0.53;;;0.53;;
17636;SDS011;8937;51.236;6.794;2023-08-06T11:02:03;0.83;;;0.83;;
17636;SDS011;8937;51.236;6.794;2023-08-06T11:10:26;1.30;;;0.90;;
17636;SDS011;8937;51.236;6.794;2023-08-06T11:18:47;1.20;;;1.10;;
17636;SDS011;8937;51.236;6.794;2023-08-06T11:27:13;1.30;;;1.30;;
17636;SDS011;8937;51.236;6.794;2023-08-06T11:35:35;0.80;;;0.80;;
17636;SDS011;8937;51.236;6.794;2023-08-06T11:43:58;1.30;;;1.20;;
17636;SDS011;8937;51.236;6.794;2023-08-06T11:52:20;1.37;;;1.27;;
17636;SDS011;8937;51.236;6.794;2023-08-06T12:00:44;1.67;;;1.57;;
17636;SDS011;8937;51.236;6.794;2023-08-06T12:09:06;1.30;;;1.30;;
17636;SDS011;8937;51.236;6.794;2023-08-06T12:17:31;1.70;;;1.60;;
17636;SDS011;8937;51.236;6.794;2023-08-06T12:25:53;1.93;;;1.70;;
17636;SDS011;8937;51.236;6.794;2023-08-06T12:34:15;1.40;;;1.30;;
17636;SDS011;8937;51.236;6.794;2023-08-06T12:42:37;1.70;;;1.60;;
17636;SDS011;8937;51.236;6.794;2023-08-06T12:50:59;1.83;;;1.73;;
17636;SDS011;8937;51.236;6.794;2023-08-06T12:59:21;1.57;;;1.50;;
17636;SDS011;8937;51.236;6.794;2023-08-06T13:07:43;1.50;;;1.40;;
17636;SDS011;8937;51.236;6.794;2023-08-06T13:16:05;1.47;;;1.33;;
17636;SDS011;8937;51.236;6.794;2023-08-06T13:24:28;1.80;;;1.70;;
17636;SDS011;8937;51.236;6.794;2023-08-06T13:32:49;1.20;;;1.20;;
17636;SDS011;8937;51.236;6.794;2023-08-06T13:41:12;1.50;;;1.40;;
17636;SDS011;8937;51.236;6.794;2023-08-06T13:49:33;1.50;;;1.50;;
17636;SDS011;8937;51.236;6.794;2023-08-06T13:57:56;2.03;;;1.60;;
17636;SDS011;8937;51.236;6.794;2023-08-06T14:06:17;1.63;;;1.47;;
17636;SDS011;8937;51.236;6.794;2023-08-06T14:14:40;1.45;;;1.38;;
17636;SDS011;8937;51.236;6.794;2023-08-06T14:23:01;1.40;;;1.27;;
17636;SDS011;8937;51.236;6.794;2023-08-06T14:31:24;1.67;;;1.58;;
17636;SDS011;8937;51.236;6.794;2023-08-06T14:39:46;1.92;;;1.55;;
17636;SDS011;8937;51.236;6.794;2023-08-06T14:48:08;2.72;;;1.48;;
17636;SDS011;8937;51.236;6.794;2023-08-06T14:56:30;1.50;;;1.50;;
17636;SDS011;8937;51.236;6.794;2023-08-06T15:04:53;1.70;;;1.60;;
17636;SDS011;8937;51.236;6.794;2023-08-06T15:13:14;2.10;;;1.60;;
17636;SDS011;8937;51.236;6.794;2023-08-06T15:21:36;1.50;;;1.40;;
17636;SDS011;8937;51.236;6.794;2023-08-06T15:29:58;1.52;;;1.42;;
17636;SDS011;8937;51.236;6.794;2023-08-06T15:38:21;1.45;;;1.45;;
17636;SDS011;8937;51.236;6.794;2023-08-06T15:46:42;1.73;;;1.35;;
17636;SDS011;8937;51.236;6.794;2023-08-06T15:55:05;1.02;;;1.00;;
17636;SDS011;8937;51.236;6.794;2023-08-06T16:03:26;1.38;;;1.27;;
17636;SDS011;8937;51.236;6.794;2023-08-06T16:11:50;1.60;;;1.50;;
17636;SDS011;8937;51.236;6.794;2023-08-06T16:20:12;1.40;;;1.20;;
17636;SDS011;8937;51.236;6.794;2023-08-06T16:28:35;1.00;;;1.00;;
17636;SDS011;8937;51.236;6.794;2023-08-06T16:36:57;1.57;;;1.07;;
17636;SDS011;8937;51.236;6.794;2023-08-06T16:45:19;1.73;;;1.30;;
17636;SDS011;8937;51.236;6.794;2023-08-06T16:53:41;0.98;;;0.85;;
17636;SDS011;8937;51.236;6.794;2023-08-06T17:02:05;1.00;;;1.00;;
17636;SDS011;8937;51.236;6.794;2023-08-06T17:10:26;1.43;;;1.30;;
17636;SDS011;8937;51.236;6.794;2023-08-06T17:18:52;1.10;;;1.10;;
17636;SDS011;8937;51.236;6.794;2023-08-06T17:27:13;1.27;;;1.13;;
17636;SDS011;8937;51.236;6.794;2023-08-06T17:35:35;1.80;;;1.30;;
17636;SDS011;8937;51.236;6.794;2023-08-06T17:43:57;1.50;;;1.40;;
17636;SDS011;8937;51.236;6.794;2023-08-06T17:52:20;1.00;;;0.90;;
17636;SDS011;8937;51.236;6.794;2023-08-06T18:00:41;0.80;;;0.80;;
17636;SDS011;8937;51.236;6.794;2023-08-06T18:09:09;1.50;;;1.40;;
17636;SDS011;8937;51.236;6.794;2023-08-06T18:17:31;1.43;;;1.33;;
17636;SDS011;8937;51.236;6.794;2023-08-06T18:25:53;3.00;;;1.30;;
17636;SDS011;8937;51.236;6.794;2023-08-06T18:34:16;2.00;;;1.03;;
17636;SDS011;8937;51.236;6.794;2023-08-06T18:42:39;1.73;;;1.17;;
17636;SDS011;8937;51.236;6.794;2023-08-06T18:51:00;1.53;;;0.80;;
17636;SDS011;8937;51.236;6.794;2023-08-06T18:59:23;1.60;;;1.00;;
17636;SDS011;8937;51.236;6.794;2023-08-06T19:07:45;1.27;;;1.00;;
17636;SDS011;8937;51.236;6.794;2023-08-06T19:16:08;3.43;;;1.40;;
17636;SDS011;8937;51.236;6.794;2023-08-06T19:24:29;3.03;;;1.23;;
17636;SDS011;8937;51.236;6.794;2023-08-06T19:32:52;2.90;;;1.07;;
17636;SDS011;8937;51.236;6.794;2023-08-06T19:41:13;4.77;;;1.47;;
17636;SDS011;8937;51.236;6.794;2023-08-06T19:49:36;1.57;;;1.07;;
17636;SDS011;8937;51.236;6.794;2023-08-06T19:57:57;2.57;;;1.17;;
17636;SDS011;8937;51.236;6.794;2023-08-06T20:06:20;2.53;;;1.20;;
17636;SDS011;8937;51.236;6.794;2023-08-06T20:14:46;3.43;;;1.63;;
17636;SDS011;8937;51.236;6.794;2023-08-06T20:23:09;3.20;;;1.30;;
17636;SDS011;8937;51.236;6.794;2023-08-06T20:31:30;3.27;;;1.30;;
17636;SDS011;8937;51.236;6.794;2023-08-06T20:39:54;4.30;;;1.30;;
17636;SDS011;8937;51.236;6.794;2023-08-06T20:48:15;1.43;;;1.20;;
17636;SDS011;8937;51.236;6.794;2023-08-06T20:56:38;4.70;;;1.50;;
17636;SDS011;8937;51.236;6.794;2023-08-06T21:04:59;2.00;;;1.10;;
17636;SDS011;8937;51.236;6.794;2023-08-06T21:13:22;1.23;;;1.07;;
17636;SDS011;8937;51.236;6.794;2023-08-06T21:21:44;4.10;;;1.40;;
17636;SDS011;8937;51.236;6.794;2023-08-06T21:30:07;1.10;;;1.00;;
17636;SDS011;8937;51.236;6.794;2023-08-06T21:38:32;1.60;;;1.00;;
17636;SDS011;8937;51.236;6.794;2023-08-06T21:46:55;1.13;;;0.83;;
17636;SDS011;8937;51.236;6.794;2023-08-06T21:55:17;3.07;;;1.00;;
17636;SDS011;8937;51.236;6.794;2023-08-06T22:03:40;1.27;;;1.00;;
17636;SDS011;8937;51.236;6.794;2023-08-06T22:12:03;3.00;;;1.10;;
17636;SDS011;8937;51.236;6.794;2023-08-06T22:20:26;1.20;;;1.10;;
17636;SDS011;8937;51.236;6.794;2023-08-06T22:28:47;3.53;;;1.33;;
17636;SDS011;8937;51.236;6.794;2023-08-06T22:37:11;2.87;;;1.30;;
17636;SDS011;8937;51.236;6.794;2023-08-06T22:45:32;1.70;;;1.30;;
17636;SDS011;8937;51.236;6.794;2023-08-06T22:53:55;2.23;;;1.37;;
17636;SDS011;8937;51.236;6.794;2023-08-06T23:02:17;3.73;;;1.20;;
17636;SDS011;8937;51.236;6.794;2023-08-06T23:10:39;3.27;;;1.20;;
17636;SDS011;8937;51.236;6.794;2023-08-06T23:19:01;1.60;;;1.20;;
17636;SDS011;8937;51.236;6.794;2023-08-06T23:27:23;2.63;;;1.40;;
17636;SDS011;8937;51.236;6.794;2023-08-06T23:35:45;2.17;;;1.50;;
17636;SDS011;8937;51.236;6.794;2023-08-06T23:44:07;2.10;;;1.50;;
17636;SDS011;8937;51.236;6.794;2023-08-06T23:52:29;1.67;;;1.30;;
